Time;durP1;ratioP1;P1;durP2;ratioP2;P2;SDS_P1;SDS_P2;PMS_P1;PMS_P2;Temp;Humidity;BMP_temperature;BMP_pressure;BME280_temperature;BME280_humidity;BME280_pressure;Samples;Min_cycle;Max_cycle;Signal;HPM_P1;HPM_P2
2021/10/25 00:01:31;;;;;;;1.85;1.40;;;;;;;187.52;100.00;60892.56;4865797;28;20615;-90
2021/10/25 00:04:10;;;;;;;1.75;1.25;;;;;;;-145.06;100.00;60892.56;4873597;28;20442;-90
2021/10/25 00:06:48;;;;;;;1.55;1.40;;;;;;;-145.06;100.00;60892.56;4869945;28;20041;-89
2021/10/25 00:09:28;;;;;;;2.00;1.45;;;;;;;5.30;100.00;60892.56;4868932;28;20025;-90
2021/10/25 00:12:07;;;;;;;1.55;1.27;;;;;;;5.49;100.00;60892.56;4862295;28;20017;-90
2021/10/25 00:14:47;;;;;;;1.88;1.38;;;;;;;5.29;100.00;60892.56;4868559;28;20064;-90
2021/10/25 00:17:25;;;;;;;4.83;1.90;;;;;;;-145.06;100.00;60892.56;4869363;28;20025;-90
2021/10/25 00:20:07;;;;;;;2.30;1.70;;;;;;;5.30;100.00;60892.56;4870455;28;20033;-89
2021/10/25 00:22:46;;;;;;;2.25;1.65;;;;;;;-145.06;100.00;60892.56;4866648;28;20033;-90
2021/10/25 00:25:25;;;;;;;3.63;1.70;;;;;;;187.52;100.00;60892.56;4872792;28;20036;-89
2021/10/25 00:28:04;;;;;;;1.88;1.60;;;;;;;5.49;100.00;60892.56;4860180;28;20064;-89
2021/10/25 00:30:43;;;;;;;1.98;1.40;;;;;;;5.26;100.00;60892.56;4863852;28;20450;-89
2021/10/25 00:33:22;;;;;;;2.17;1.55;;;;;;;5.32;100.00;60892.56;4864942;28;20025;-88
2021/10/25 00:36:01;;;;;;;2.23;1.63;;;;;;;5.23;100.00;60892.56;4871403;28;20021;-90
2021/10/25 00:38:40;;;;;;;1.73;1.60;;;;;;;5.22;100.00;60892.56;4870500;28;20037;-89
2021/10/25 00:41:19;;;;;;;1.38;1.27;;;;;;;-145.06;100.00;60892.56;4861348;28;20276;-89
2021/10/25 00:43:58;;;;;;;1.10;1.00;;;;;;;-145.06;100.00;60892.56;4877220;28;20482;-90
2021/10/25 00:46:38;;;;;;;2.28;1.50;;;;;;;-145.06;100.00;60892.56;4876614;28;20279;-89
2021/10/25 00:49:17;;;;;;;;;;;;;;;-145.06;100.00;60892.56;4868770;28;20033;-89
2021/10/25 00:51:56;;;;;;;1.60;1.20;;;;;;;5.15;100.00;60892.56;4868678;28;20238;-89
2021/10/25 00:54:36;;;;;;;1.70;1.13;;;;;;;-145.06;100.00;60892.56;4867643;28;20037;-90
2021/10/25 00:57:15;;;;;;;1.70;1.20;;;;;;;-145.06;100.00;60892.56;4888143;28;20036;-90
2021/10/25 00:59:54;;;;;;;1.67;1.15;;;;;;;5.10;100.00;60892.56;4890071;28;20466;-90
2021/10/25 01:02:33;;;;;;;1.45;1.10;;;;;;;5.16;100.00;60892.56;4868184;28;20119;-90
2021/10/25 01:05:12;;;;;;;1.20;1.00;;;;;;;5.07;100.00;60892.56;4864758;28;20446;-90
2021/10/25 01:07:53;;;;;;;1.40;1.20;;;;;;;5.06;100.00;60892.56;4871275;28;20648;-89
2021/10/25 01:10:33;;;;;;;1.30;1.00;;;;;;;-145.06;100.00;60892.56;4873592;28;20025;-90
2021/10/25 01:13:13;;;;;;;1.00;0.90;;;;;;;-145.06;100.00;60892.56;4870017;28;20029;-88
2021/10/25 01:15:52;;;;;;;;;;;;;;;-145.06;100.00;60892.56;4863556;28;20119;-90
2021/10/25 01:18:31;;;;;;;1.10;1.00;;;;;;;5.08;100.00;60892.56;4872315;28;19912;-89
2021/10/25 01:21:10;;;;;;;1.10;1.00;;;;;;;-145.06;100.00;60892.56;4875430;28;20036;-89
2021/10/25 01:23:50;;;;;;;1.03;0.93;;;;;;;-145.06;100.00;60892.56;4877453;28;20041;-89
2021/10/25 01:26:30;;;;;;;1.13;1.00;;;;;;;-145.06;100.00;60892.56;4868817;28;20033;-90
2021/10/25 01:29:09;;;;;;;1.33;1.00;;;;;;;-145.06;100.00;60892.56;4874079;28;20056;-89
2021/10/25 01:31:48;;;;;;;1.10;0.90;;;;;;;-145.06;100.00;60892.56;4873528;28;20060;-89
2021/10/25 01:34:27;;;;;;;1.65;1.17;;;;;;;-145.06;100.00;60892.56;4866448;28;20025;-89
2021/10/25 01:37:08;;;;;;;1.73;1.20;;;;;;;-145.06;100.00;60892.56;4871036;28;20060;-89
2021/10/25 01:39:47;;;;;;;1.70;1.00;;;;;;;-145.06;100.00;60892.56;4875745;28;20267;-89
2021/10/25 01:42:26;;;;;;;2.10;1.43;;;;;;;4.88;100.00;60892.56;4865659;28;20026;-90
2021/10/25 01:45:07;;;;;;;1.10;1.00;;;;;;;-145.06;100.00;60892.56;4866585;28;20037;-89
2021/10/25 01:47:46;;;;;;;1.27;0.95;;;;;;;-145.06;100.00;60892.56;4873006;28;20025;-89
2021/10/25 01:50:25;;;;;;;1.73;1.10;;;;;;;-145.06;100.00;60892.56;4874770;28;20344;-90
2021/10/25 01:53:06;;;;;;;1.27;1.00;;;;;;;-145.06;100.00;60892.56;4874366;28;20235;-89
2021/10/25 01:55:47;;;;;;;1.45;1.15;;;;;;;-145.06;100.00;60892.56;4869616;28;20036;-90
2021/10/25 01:58:28;;;;;;;1.65;1.00;;;;;;;4.92;100.00;60892.56;4869493;28;20029;-89
2021/10/25 02:01:07;;;;;;;1.15;1.00;;;;;;;5.00;100.00;60892.56;4867746;28;20096;-89
2021/10/25 02:03:46;;;;;;;1.17;0.90;;;;;;;-145.06;100.00;60892.56;4876166;28;20029;-89
2021/10/25 02:06:25;;;;;;;0.95;0.85;;;;;;;-145.06;100.00;60892.56;4861269;28;20033;-89
2021/10/25 02:09:05;;;;;;;1.90;1.13;;;;;;;-145.06;100.00;60892.56;4866401;28;20036;-90
2021/10/25 02:11:43;;;;;;;0.70;0.60;;;;;;;-145.06;100.00;60892.56;4882482;28;20029;-89
2021/10/25 02:14:22;;;;;;;1.40;0.85;;;;;;;4.84;100.00;60892.56;4869084;28;20033;-89
2021/10/25 02:17:01;;;;;;;1.30;0.93;;;;;;;4.82;100.00;60892.56;4873439;28;20375;-88
2021/10/25 02:19:41;;;;;;;0.93;0.90;;;;;;;10.68;100.00;60892.56;4899500;28;20272;-91
2021/10/25 02:22:20;;;;;;;1.30;1.00;;;;;;;-145.06;100.00;60892.56;4896517;28;20025;-89
2021/10/25 02:24:59;;;;;;;1.30;0.93;;;;;;;-145.06;100.00;60892.56;4875943;28;20028;-90
2021/10/25 02:27:38;;;;;;;1.35;1.10;;;;;;;4.77;100.00;60892.56;4868363;28;20312;-90
2021/10/25 02:30:16;;;;;;;1.23;1.00;;;;;;;-145.06;100.00;60892.56;4872114;28;20029;-89
2021/10/25 02:32:57;;;;;;;1.93;1.20;;;;;;;-145.06;100.00;60892.56;4874561;28;20029;-90
2021/10/25 02:35:35;;;;;;;;;;;;;;;-145.06;100.00;60892.56;4870674;28;20283;-89
2021/10/25 02:38:15;;;;;;;0.98;0.82;;;;;;;-145.06;100.00;60892.56;4873839;28;20260;-90
2021/10/25 02:40:54;;;;;;;1.00;0.90;;;;;;;4.73;100.00;60892.56;4874245;28;20029;-90
2021/10/25 02:43:33;;;;;;;1.13;0.95;;;;;;;4.71;100.00;60892.56;4873787;28;20037;-90
2021/10/25 02:46:13;;;;;;;1.33;1.00;;;;;;;-145.06;100.00;60892.56;4863370;28;20029;-89
2021/10/25 02:48:52;;;;;;;0.80;0.80;;;;;;;-145.06;100.00;60892.56;4867587;28;20037;-90
2021/10/25 02:51:31;;;;;;;1.00;0.90;;;;;;;-145.06;100.00;60892.56;4873740;28;20029;-89
2021/10/25 02:54:11;;;;;;;1.43;0.93;;;;;;;-145.06;100.00;60892.56;4872193;28;20029;-89
2021/10/25 02:56:57;;;;;;;2.47;1.05;;;;;;;-145.06;100.00;60892.56;4864217;28;20260;-89
2021/10/25 02:59:36;;;;;;;1.73;0.95;;;;;;;-145.06;100.00;60892.56;4870797;28;20072;-89
2021/10/25 03:02:15;;;;;;;1.43;1.00;;;;;;;-145.06;100.00;60892.56;4866536;28;20065;-90
2021/10/25 03:04:54;;;;;;;0.88;0.85;;;;;;;-145.06;100.00;60892.56;4865688;28;20032;-91
2021/10/25 03:07:33;;;;;;;1.03;0.93;;;;;;;-145.06;100.00;60892.56;4872671;28;20040;-90
2021/10/25 03:10:13;;;;;;;1.73;1.10;;;;;;;4.88;100.00;60892.56;4872894;28;20056;-89
2021/10/25 03:12:51;;;;;;;1.73;0.88;;;;;;;4.85;100.00;60892.56;4873725;28;20037;-90
2021/10/25 03:15:30;;;;;;;1.20;0.82;;;;;;;-145.06;100.00;60892.56;4871192;28;20036;-90
2021/10/25 03:18:11;;;;;;;1.15;0.90;;;;;;;-145.06;100.00;60892.56;4873823;28;20076;-90
2021/10/25 03:20:51;;;;;;;1.60;0.90;;;;;;;-145.06;100.00;60892.56;4868201;28;20048;-89
2021/10/25 03:23:31;;;;;;;;;;;;;;;-145.06;100.00;60892.56;4875370;28;20359;-89
2021/10/25 03:26:10;;;;;;;0.88;0.70;;;;;;;-145.06;100.00;60892.56;4873803;28;19908;-89
2021/10/25 03:28:49;;;;;;;0.80;0.80;;;;;;;4.94;100.00;79433.97;4874977;28;20470;-90
2021/10/25 03:31:28;;;;;;;1.40;0.90;;;;;;;4.97;100.00;60892.56;4866406;28;20746;-91
2021/10/25 03:34:07;;;;;;;0.93;0.83;;;;;;;4.99;100.00;60892.56;4887270;28;20021;-89
2021/10/25 03:36:48;;;;;;;1.00;0.90;;;;;;;5.04;100.00;60892.56;4863045;28;20279;-89
2021/10/25 03:39:31;;;;;;;1.38;0.80;;;;;;;187.52;100.00;60892.56;4896963;28;20033;-89
2021/10/25 03:42:17;;;;;;;1.40;0.93;;;;;;;5.44;100.00;60892.56;4870070;28;20260;-89
2021/10/25 03:45:11;;;;;;;1.52;1.13;;;;;;;-145.06;100.00;60892.56;4873368;28;20355;-89
2021/10/25 03:48:03;;;;;;;1.27;0.70;;;;;;;-145.06;100.00;60892.56;4866838;28;20028;-89
2021/10/25 03:50:44;;;;;;;2.10;1.30;;;;;;;-145.06;100.00;60892.56;4871542;28;20021;-89
2021/10/25 03:56:14;;;;;;;1.38;0.90;;;;;;;5.39;100.00;60892.56;4870028;28;20024;-89
2021/10/25 04:25:47;;;;;;;2.17;1.17;;;;;;;-145.06;100.00;60892.56;4874155;28;20021;-90
2021/10/25 04:28:26;;;;;;;1.83;0.95;;;;;;;6.14;100.00;60892.56;4871159;28;20025;-90
2021/10/25 04:31:07;;;;;;;1.48;0.82;;;;;;;8.08;100.00;60892.56;4869519;28;20025;-88
2021/10/25 04:33:46;;;;;;;1.38;1.05;;;;;;;-145.06;100.00;60892.56;4870117;28;20028;-90
2021/10/25 04:36:25;;;;;;;1.17;0.90;;;;;;;-145.06;100.00;60892.56;4866105;28;20028;-88
2021/10/25 04:39:09;;;;;;;1.17;0.90;;;;;;;-145.06;100.00;60892.56;4863858;28;20041;-88
2021/10/25 04:41:48;;;;;;;1.73;1.00;;;;;;;-145.06;100.00;60892.56;4868830;28;20037;-89
2021/10/25 04:44:29;;;;;;;1.63;1.25;;;;;;;-145.06;100.00;60892.56;4870585;28;20647;-88
2021/10/25 04:47:08;;;;;;;1.90;1.00;;;;;;;-145.06;100.00;60892.56;4880610;28;20107;-89
2021/10/25 04:49:47;;;;;;;1.85;1.30;;;;;;;187.52;100.00;60892.56;4869838;28;20098;-88
2021/10/25 04:52:29;;;;;;;1.95;1.30;;;;;;;5.90;100.00;60892.56;4864464;28;20021;-89
2021/10/25 04:55:08;;;;;;;1.30;0.98;;;;;;;-145.06;100.00;60892.56;4864529;28;20032;-89
2021/10/25 04:58:03;;;;;;;1.70;1.23;;;;;;;5.97;100.00;60892.56;4879956;28;20013;-89
2021/10/25 05:00:42;;;;;;;1.77;1.25;;;;;;;-145.06;100.00;60892.56;4889699;28;20033;-89
2021/10/25 05:03:21;;;;;;;1.65;1.15;;;;;;;-145.06;100.00;60892.56;4866467;28;20024;-90
2021/10/25 05:06:00;;;;;;;2.00;1.40;;;;;;;-145.06;100.00;60892.56;4871957;28;20243;-89
2021/10/25 05:08:39;;;;;;;2.15;1.33;;;;;;;-145.06;100.00;60892.56;4867880;28;20053;-90
2021/10/25 05:11:18;;;;;;;1.70;1.20;;;;;;;-145.06;100.00;60892.56;4869942;28;20276;-90
2021/10/25 05:13:57;;;;;;;1.63;1.20;;;;;;;-145.06;100.00;60892.56;4883299;28;20028;-88
2021/10/25 05:16:37;;;;;;;1.90;1.02;;;;;;;-145.06;100.00;60892.56;4861331;28;20464;-89
2021/10/25 05:19:16;;;;;;;1.45;1.20;;;;;;;6.19;100.00;60892.56;4867458;28;20033;-89
2021/10/25 05:21:55;;;;;;;1.10;0.95;;;;;;;-145.06;100.00;60892.56;4862696;28;20479;-89
2021/10/25 05:24:34;;;;;;;2.23;1.17;;;;;;;6.18;100.00;60892.56;4872346;28;20041;-88
2021/10/25 05:27:14;;;;;;;2.73;1.17;;;;;;;6.17;100.00;60892.56;4864569;28;20268;-89
2021/10/25 05:29:53;;;;;;;1.35;1.20;;;;;;;6.19;100.00;60892.56;4877326;28;20435;-89
2021/10/25 05:32:33;;;;;;;1.80;1.20;;;;;;;-145.06;100.00;60892.56;4875545;28;20033;-89
2021/10/25 05:35:12;;;;;;;2.70;1.20;;;;;;;-145.06;100.00;60892.56;4864897;28;20021;-89
2021/10/25 05:37:51;;;;;;;1.33;1.00;;;;;;;10.68;100.00;60892.56;4872613;28;20474;-89
2021/10/25 05:40:30;;;;;;;1.27;0.93;;;;;;;-145.06;100.00;60892.56;4865080;28;20108;-89
2021/10/25 05:43:10;;;;;;;1.48;0.82;;;;;;;-145.06;100.00;60892.56;4868571;28;20032;-88
2021/10/25 05:45:49;;;;;;;1.98;1.10;;;;;;;-145.06;100.00;60892.56;4874654;28;20502;-88
2021/10/25 05:48:27;;;;;;;1.35;0.90;;;;;;;-145.06;100.00;60892.56;4873057;28;20048;-87
2021/10/25 05:51:06;;;;;;;1.47;1.03;;;;;;;6.79;100.00;60892.56;4873577;28;20037;-88
2021/10/25 05:53:46;;;;;;;1.45;1.08;;;;;;;-145.06;100.00;60892.56;4870379;28;20434;-89
2021/10/25 05:56:27;;;;;;;;;;;;;;;-145.06;100.00;60892.56;4872239;28;20036;-89
2021/10/25 05:59:06;;;;;;;1.33;0.80;;;;;;;-145.06;100.00;60892.56;4866945;28;19912;-89
2021/10/25 06:01:55;;;;;;;1.57;1.10;;;;;;;6.27;100.00;79655.25;4870369;28;20510;-90
2021/10/25 06:04:34;;;;;;;1.13;0.95;;;;;;;187.52;100.00;60892.56;4870493;28;20699;-88
2021/10/25 06:07:13;;;;;;;1.50;0.90;;;;;;;-145.06;100.00;60892.56;4873842;28;20248;-88
2021/10/25 06:09:53;;;;;;;1.40;1.10;;;;;;;-145.06;100.00;60892.56;4872992;28;20103;-89
2021/10/25 06:12:40;;;;;;;1.52;1.20;;;;;;;-145.06;100.00;60892.56;4869277;28;20033;-89
2021/10/25 06:15:23;;;;;;;1.63;0.80;;;;;;;187.52;100.00;60892.56;4877214;28;20029;-89
2021/10/25 06:18:05;;;;;;;2.05;1.30;;;;;;;6.46;100.00;60892.56;4895095;28;20013;-88
2021/10/25 06:20:44;;;;;;;2.35;0.90;;;;;;;21.08;100.00;60892.56;4874288;28;20354;-89
2021/10/25 06:23:23;;;;;;;1.15;0.80;;;;;;;6.18;100.00;60892.56;4875616;28;20358;-88
2021/10/25 06:26:03;;;;;;;1.27;1.00;;;;;;;6.18;100.00;60892.56;4871200;28;20037;-89
2021/10/25 06:28:42;;;;;;;2.20;1.20;;;;;;;-145.06;100.00;60892.56;4870374;28;20033;-89
2021/10/25 06:31:23;;;;;;;2.27;1.03;;;;;;;-145.06;100.00;60892.56;4874431;28;20025;-89
2021/10/25 06:34:08;;;;;;;1.15;1.00;;;;;;;8.08;100.00;60892.56;4875510;28;20033;-89
2021/10/25 06:36:49;;;;;;;1.52;1.02;;;;;;;6.79;100.00;60892.56;4871948;28;20501;-89
2021/10/25 06:39:39;;;;;;;1.05;0.80;;;;;;;-145.06;100.00;60892.56;4870245;28;20060;-88
2021/10/25 06:42:18;;;;;;;1.35;1.10;;;;;;;187.52;100.00;60892.56;4873816;28;20033;-88
2021/10/25 06:44:59;;;;;;;1.10;0.80;;;;;;;-145.06;100.00;60892.56;4870608;28;20033;-90
2021/10/25 06:47:38;;;;;;;1.23;0.95;;;;;;;-145.06;100.00;60892.56;4871493;28;20021;-89
2021/10/25 06:50:21;;;;;;;1.70;1.03;;;;;;;-145.06;100.00;60892.56;4870904;28;20016;-89
2021/10/25 06:53:04;;;;;;;1.40;0.93;;;;;;;-145.06;100.00;60892.56;4885844;28;20100;-89
2021/10/25 06:55:44;;;;;;;1.95;1.23;;;;;;;8.08;100.00;60892.56;4870891;28;20478;-89
2021/10/25 06:58:23;;;;;;;1.33;1.10;;;;;;;-145.06;100.00;60892.56;4869528;28;20037;-89
2021/10/25 07:01:03;;;;;;;2.70;1.30;;;;;;;-145.06;100.00;60892.56;4867550;28;20033;-89
2021/10/25 07:03:42;;;;;;;;;;;;;;;-145.06;100.00;60892.56;4868149;28;20359;-90
2021/10/25 07:06:21;;;;;;;2.03;1.30;;;;;;;-145.06;100.00;60892.56;4870381;28;19952;-88
2021/10/25 07:09:03;;;;;;;3.33;1.10;;;;;;;-145.06;100.00;60892.56;4869712;28;20263;-88
2021/10/25 07:11:43;;;;;;;2.17;1.40;;;;;;;-145.06;100.00;60892.56;4864365;28;20029;-89
2021/10/25 07:14:33;;;;;;;1.92;1.20;;;;;;;6.67;100.00;60892.56;4865031;28;20025;-88
2021/10/25 08:07:44;;;;;;;1.35;1.00;;;;;;;-145.06;100.00;60892.56;4867968;28;20029;-89
2021/10/25 08:10:31;;;;;;;1.20;0.90;;;;;;;-145.06;100.00;60892.56;4866555;28;20323;-89
2021/10/25 08:13:15;;;;;;;2.50;1.42;;;;;;;-145.06;100.00;60892.56;4864382;28;20021;-89
2021/10/25 08:15:54;;;;;;;1.73;1.30;;;;;;;10.68;100.00;60892.56;4865319;28;20029;-89
2021/10/25 08:21:19;;;;;;;1.95;1.35;;;;;;;8.04;100.00;60892.56;4867540;28;20466;-89
2021/10/25 08:23:59;;;;;;;1.80;1.33;;;;;;;-145.06;100.00;60892.56;4865061;28;20745;-90
2021/10/25 08:26:38;;;;;;;2.20;1.10;;;;;;;9.38;100.00;60892.56;4869821;28;20037;-88
2021/10/25 08:29:18;;;;;;;2.67;1.40;;;;;;;-145.06;100.00;60892.56;4870534;28;20383;-88
2021/10/25 08:32:22;;;;;;;;;;;;;;;-145.06;100.00;60892.56;4868879;28;20029;-90
2021/10/25 08:40:55;;;;;;;2.57;1.57;;;;;;;-145.06;100.00;60892.56;4878862;28;20045;-89
2021/10/25 08:43:35;;;;;;;2.05;1.40;;;;;;;-145.06;100.00;60892.56;4867204;28;20024;-89
2021/10/25 08:46:15;;;;;;;2.10;1.50;;;;;;;8.79;100.00;60892.56;4863689;28;20041;-89
2021/10/25 08:48:55;;;;;;;1.77;1.30;;;;;;;8.86;100.00;60892.56;4866196;28;20025;-88
2021/10/25 08:51:34;;;;;;;;;;;;;;;-145.06;100.00;60892.56;4864339;28;20033;-89
2021/10/25 08:54:13;;;;;;;1.50;1.20;;;;;;;-145.06;100.00;60892.56;4871352;28;19952;-89
2021/10/25 08:56:52;;;;;;;1.50;1.25;;;;;;;-145.06;100.00;60892.56;4881371;28;20028;-90
2021/10/25 08:59:31;;;;;;;1.80;1.40;;;;;;;9.24;100.00;60892.56;4872975;28;20120;-90
2021/10/25 09:02:10;;;;;;;1.58;1.10;;;;;;;-145.06;100.00;60892.56;4880851;28;20041;-89
2021/10/25 09:05:07;;;;;;;1.88;1.30;;;;;;;-145.06;100.00;60892.56;4871339;28;20036;-89
2021/10/25 09:07:51;;;;;;;1.13;1.00;;;;;;;-145.06;100.00;60892.56;4866941;28;20025;-89
2021/10/25 09:10:39;;;;;;;1.77;1.05;;;;;;;-145.06;100.00;60892.56;4869776;28;20025;-90
2021/10/25 09:13:20;;;;;;;0.93;0.75;;;;;;;-145.06;100.00;60892.56;4870052;28;20458;-90
2021/10/25 09:16:03;;;;;;;2.45;0.95;;;;;;;21.08;100.00;60892.56;4871825;28;20064;-90
2021/10/25 09:18:42;;;;;;;1.38;0.98;;;;;;;10.23;100.00;60892.56;4872001;28;20033;-89
2021/10/25 09:21:22;;;;;;;1.20;0.93;;;;;;;-145.06;100.00;60892.56;4868255;28;20021;-90
2021/10/25 09:24:00;;;;;;;1.42;1.20;;;;;;;10.61;100.00;60892.56;4871900;28;20045;-89
2021/10/25 09:26:39;;;;;;;0.98;0.80;;;;;;;-145.06;100.00;60892.56;4874063;28;20033;-89
2021/10/25 09:29:24;;;;;;;0.90;0.73;;;;;;;11.03;100.00;60892.56;4870132;28;20041;-90
2021/10/25 09:32:12;;;;;;;0.93;0.63;;;;;;;11.27;100.00;60892.56;4867950;28;20717;-90
2021/10/25 09:34:58;;;;;;;0.50;0.40;;;;;;;-145.06;100.00;60892.56;4865585;28;20033;-89
2021/10/25 09:37:44;;;;;;;0.70;0.60;;;;;;;21.08;100.00;60892.56;4866686;28;20025;-89
2021/10/25 09:40:52;;;;;;;0.50;0.40;;;;;;;187.52;100.00;60892.56;4870180;28;20107;-90
2021/10/25 09:48:59;;;;;;;0.63;0.50;;;;;;;12.52;100.00;60892.56;4869361;28;20061;-89
2021/10/25 09:49:33;;;;;;;1.27;0.80;;;;;;;-145.06;100.00;60892.56;4866387;28;20494;-90
2021/10/25 09:52:12;;;;;;;1.20;0.68;;;;;;;13.04;100.00;60892.56;4869835;28;20145;-90
2021/10/25 09:54:57;;;;;;;0.95;0.70;;;;;;;13.28;100.00;60892.56;4869656;28;20033;-89
2021/10/25 09:57:49;;;;;;;1.80;0.60;;;;;;;13.39;100.00;60892.56;4869600;28;20033;-89
2021/10/25 10:00:29;;;;;;;0.80;0.60;;;;;;;13.57;100.00;80722.13;4882339;28;20033;-90
2021/10/25 10:03:08;;;;;;;1.20;0.70;;;;;;;15.88;100.00;60892.56;4864217;28;20033;-91
2021/10/25 10:05:49;;;;;;;0.70;0.50;;;;;;;14.58;100.00;60892.56;4859565;28;20271;-90
2021/10/25 10:08:28;;;;;;;1.23;0.70;;;;;;;15.88;100.00;60892.56;4865557;28;20311;-92
2021/10/25 10:11:08;;;;;;;0.80;0.63;;;;;;;14.58;100.00;60892.56;4867680;28;20029;-88
2021/10/25 10:13:47;;;;;;;1.55;0.68;;;;;;;14.40;100.00;60892.56;4865969;28;20021;-89
2021/10/25 10:16:27;;;;;;;0.77;0.50;;;;;;;14.58;100.00;60892.56;4866923;28;20021;-90
2021/10/25 10:19:10;;;;;;;0.77;0.60;;;;;;;15.88;100.00;60892.56;4869281;28;20064;-90
2021/10/25 10:21:55;;;;;;;1.30;0.68;;;;;;;15.88;100.00;60892.56;4875349;28;20033;-91
2021/10/25 10:24:35;;;;;;;0.90;0.60;;;;;;;15.12;100.00;60892.56;4886079;28;20057;-89
2021/10/25 10:27:19;;;;;;;3.08;1.45;;;;;;;15.39;100.00;60892.56;4872912;28;20020;-88
2021/10/25 10:30:00;;;;;;;0.88;0.63;;;;;;;15.56;100.00;80858.84;4869787;28;20033;-90
2021/10/25 10:32:39;;;;;;;1.00;0.70;;;;;;;15.80;100.00;60892.56;4867219;28;20037;-89
2021/10/25 10:35:18;;;;;;;0.93;0.60;;;;;;;15.88;100.00;60892.56;4865856;28;20126;-92
2021/10/25 10:38:01;;;;;;;1.23;0.50;;;;;;;16.20;100.00;60892.56;4868117;28;20029;-90
2021/10/25 10:40:43;;;;;;;0.47;0.40;;;;;;;18.48;100.00;60892.56;4881107;28;20490;-90
2021/10/25 10:43:25;;;;;;;0.43;0.32;;;;;;;16.08;100.00;60892.56;4862334;28;20037;-90
2021/10/25 10:46:15;;;;;;;0.43;0.43;;;;;;;16.13;100.00;60892.56;4865124;28;20912;-89
2021/10/25 10:48:57;;;;;;;0.82;0.40;;;;;;;16.53;100.00;60892.56;4865921;28;20116;-91
2021/10/25 10:51:37;;;;;;;0.63;0.30;;;;;;;17.18;100.00;60892.56;4864944;28;20029;-90
2021/10/25 10:54:23;;;;;;;0.60;0.50;;;;;;;17.18;100.00;60892.56;4866818;28;20028;-90
2021/10/25 10:57:08;;;;;;;0.40;0.30;;;;;;;16.24;100.00;60892.56;4866608;28;20037;-90
2021/10/25 10:59:50;;;;;;;1.40;0.50;;;;;;;16.26;100.00;60892.56;4867399;28;20029;-90
2021/10/25 11:02:29;;;;;;;0.40;0.40;;;;;;;-145.06;100.00;60892.56;4865079;28;20025;-90
2021/10/25 11:05:09;;;;;;;0.85;0.63;;;;;;;16.35;100.00;60892.56;4862836;28;20025;-90
2021/10/25 11:07:48;;;;;;;0.85;0.50;;;;;;;16.32;100.00;60892.56;4865175;28;20032;-90
2021/10/25 11:10:28;;;;;;;0.40;0.35;;;;;;;16.31;100.00;60892.56;4868025;28;20033;-90
2021/10/25 11:13:16;;;;;;;0.85;0.38;;;;;;;-145.06;100.00;60892.56;4865213;28;20032;-91
2021/10/25 11:16:12;;;;;;;1.85;0.60;;;;;;;17.18;100.00;60892.56;4862855;28;20104;-89
2021/10/25 11:18:54;;;;;;;1.25;0.65;;;;;;;16.35;100.00;60892.56;4865392;28;20056;-89
2021/10/25 11:21:35;;;;;;;1.13;0.73;;;;;;;16.33;100.00;60892.56;4865162;28;20124;-90
2021/10/25 11:24:20;;;;;;;0.95;0.40;;;;;;;-145.06;100.00;60892.56;4866867;28;20033;-90
2021/10/25 11:26:59;;;;;;;0.73;0.52;;;;;;;16.38;100.00;60892.56;4864326;28;20028;-89
2021/10/25 11:29:39;;;;;;;1.08;0.60;;;;;;;-145.06;100.00;60892.56;4868063;28;20037;-87
2021/10/25 11:32:18;;;;;;;0.52;0.40;;;;;;;16.41;100.00;60892.56;4863584;28;20120;-90
2021/10/25 11:34:58;;;;;;;1.40;0.40;;;;;;;-145.06;100.00;60892.56;4877108;28;20025;-90
2021/10/25 11:37:38;;;;;;;0.40;0.30;;;;;;;16.43;100.00;60892.56;4866191;28;20025;-89
2021/10/25 11:40:23;;;;;;;0.52;0.38;;;;;;;-145.06;100.00;60892.56;4866173;28;20498;-91
2021/10/25 11:43:02;;;;;;;0.82;0.40;;;;;;;16.41;100.00;60892.56;4864929;28;20348;-88
2021/10/25 11:45:41;;;;;;;0.60;0.60;;;;;;;-145.06;100.00;60892.56;4860286;28;20032;-88
2021/10/25 11:48:30;;;;;;;0.90;0.57;;;;;;;16.37;100.00;60892.56;4863120;28;20040;-89
2021/10/25 11:51:09;;;;;;;0.98;0.70;;;;;;;-145.06;100.00;60892.56;4863412;28;20022;-89
2021/10/25 11:53:59;;;;;;;0.57;0.50;;;;;;;16.36;100.00;60892.56;4862856;28;20029;-89
2021/10/25 11:56:47;;;;;;;0.77;0.55;;;;;;;16.36;100.00;60892.56;4864555;28;20407;-89
2021/10/25 11:59:26;;;;;;;0.90;0.43;;;;;;;16.35;100.00;60892.56;4882519;28;20235;-89
2021/10/25 12:02:10;;;;;;;0.95;0.45;;;;;;;16.32;100.00;60892.56;4877576;28;20101;-88
2021/10/25 12:04:49;;;;;;;1.17;0.50;;;;;;;-145.06;100.00;60892.56;4865096;28;20486;-89
2021/10/25 12:07:28;;;;;;;1.83;0.60;;;;;;;16.32;100.00;60892.56;4865409;28;20060;-89
2021/10/25 12:10:18;;;;;;;1.80;0.55;;;;;;;16.24;100.00;81079.44;4863187;28;20326;-89
2021/10/25 12:13:01;;;;;;;0.40;0.30;;;;;;;16.37;100.00;60892.56;4878319;28;20033;-89
2021/10/25 12:15:54;;;;;;;0.57;0.40;;;;;;;16.53;100.00;60892.56;4864583;28;20155;-89
2021/10/25 12:18:33;;;;;;;0.60;0.40;;;;;;;17.18;100.00;60892.56;4866174;28;20490;-89
2021/10/25 12:21:17;;;;;;;0.68;0.50;;;;;;;17.18;100.00;60892.56;4867475;28;20409;-89
2021/10/25 12:23:56;;;;;;;0.98;0.43;;;;;;;16.13;100.00;60892.56;4861833;28;20044;-88
2021/10/25 12:26:47;;;;;;;1.20;0.50;;;;;;;16.13;100.00;60892.56;4862238;28;20175;-89
2021/10/25 12:29:26;;;;;;;0.45;0.40;;;;;;;18.48;100.00;60892.56;4861330;28;20033;-89
2021/10/25 12:32:08;;;;;;;0.98;0.50;;;;;;;17.18;100.00;60892.56;4860219;28;20061;-88
2021/10/25 12:34:56;;;;;;;0.85;0.65;;;;;;;16.03;100.00;60892.56;4858365;28;20029;-89
2021/10/25 12:37:36;;;;;;;0.55;0.40;;;;;;;16.02;100.00;60892.56;4863550;28;20036;-89
2021/10/25 12:40:18;;;;;;;0.73;0.43;;;;;;;16.20;100.00;60892.56;4867828;28;20426;-89
2021/10/25 12:43:02;;;;;;;0.95;0.70;;;;;;;17.18;100.00;60892.56;4869359;28;20037;-88
2021/10/25 12:45:55;;;;;;;0.90;0.52;;;;;;;15.92;100.00;60892.56;4864264;28;20056;-89
2021/10/25 12:48:46;;;;;;;0.85;0.60;;;;;;;15.90;100.00;60892.56;4870358;28;20029;-89
2021/10/25 12:51:41;;;;;;;0.63;0.40;;;;;;;15.87;100.00;60892.56;4861603;28;20029;-88
2021/10/25 12:54:20;;;;;;;0.57;0.55;;;;;;;15.86;100.00;60892.56;4866441;28;20252;-89
2021/10/25 12:57:01;;;;;;;1.20;0.52;;;;;;;15.87;100.00;60892.56;4878299;28;20041;-88
2021/10/25 12:59:41;;;;;;;0.50;0.50;;;;;;;15.87;100.00;60892.56;4863921;28;20036;-89
2021/10/25 13:02:25;;;;;;;0.85;0.65;;;;;;;15.86;100.00;60892.56;4866449;28;20072;-89
2021/10/25 13:05:26;;;;;;;0.73;0.60;;;;;;;15.88;100.00;60892.56;4869706;28;20351;-90
2021/10/25 13:08:07;;;;;;;1.25;0.70;;;;;;;15.86;100.00;60892.56;4868871;28;20360;-89
2021/10/25 13:10:46;;;;;;;0.50;0.47;;;;;;;15.88;100.00;60892.56;4868912;28;20029;-89
2021/10/25 13:13:35;;;;;;;0.98;0.82;;;;;;;15.89;100.00;60892.56;4868104;28;20029;-89
2021/10/25 13:16:20;;;;;;;0.95;0.50;;;;;;;17.18;100.00;60892.56;4867060;28;20112;-89
2021/10/25 13:18:59;;;;;;;0.70;0.40;;;;;;;16.04;100.00;60892.56;4865286;28;20364;-88
2021/10/25 13:21:38;;;;;;;1.55;0.70;;;;;;;15.87;100.00;60892.56;4867208;28;20414;-89
2021/10/25 13:24:17;;;;;;;1.17;0.80;;;;;;;15.87;100.00;80899.63;4868584;28;20037;-89
2021/10/25 13:26:56;;;;;;;1.10;0.70;;;;;;;15.85;100.00;60892.56;4866714;28;20172;-89
2021/10/25 13:29:35;;;;;;;0.52;0.50;;;;;;;15.86;100.00;60892.56;4865615;28;20670;-89
2021/10/25 13:32:15;;;;;;;0.77;0.63;;;;;;;15.87;100.00;60892.56;4869030;28;20345;-88
2021/10/25 13:34:55;;;;;;;1.40;0.50;;;;;;;15.86;100.00;60892.56;4891279;28;20037;-89
2021/10/25 13:37:34;;;;;;;0.40;0.40;;;;;;;15.87;100.00;60892.56;4881811;28;20037;-90
2021/10/25 13:40:13;;;;;;;0.55;0.50;;;;;;;15.88;100.00;60892.56;4868802;28;20363;-89
2021/10/25 13:42:52;;;;;;;1.48;0.50;;;;;;;15.87;100.00;60892.56;4868333;28;20033;-88
2021/10/25 13:45:32;;;;;;;0.82;0.60;;;;;;;15.88;100.00;60892.56;4868731;28;20041;-89
2021/10/25 13:48:11;;;;;;;0.52;0.50;;;;;;;21.08;100.00;60892.56;4866549;28;20029;-90
2021/10/25 13:50:50;;;;;;;1.15;0.60;;;;;;;15.88;100.00;60892.56;4866078;28;20064;-90
2021/10/25 13:53:30;;;;;;;1.45;0.50;;;;;;;15.88;100.00;60892.56;4867379;28;20469;-89
2021/10/25 13:56:10;;;;;;;0.75;0.52;;;;;;;21.08;100.00;60892.56;4867860;28;20033;-90
2021/10/25 13:58:49;;;;;;;0.68;0.63;;;;;;;16.04;100.00;60892.56;4866681;28;20521;-88